sensor_id;sensor_type;location;lat;lon;timestamp;P1;durP1;ratioP1;P2;durP2;ratioP2
26612;SDS011;14248;57.652;11.908;2023-05-20T00:02:17;6.38;;;4.75;;
26612;SDS011;14248;57.652;11.908;2023-05-20T00:04:43;5.00;;;4.50;;
26612;SDS011;14248;57.652;11.908;2023-05-20T00:07:09;6.18;;;4.90;;
26612;SDS011;14248;57.652;11.908;2023-05-20T00:09:36;6.60;;;5.28;;
26612;SDS011;14248;57.652;11.908;2023-05-20T00:12:03;7.53;;;5.45;;
26612;SDS011;14248;57.652;11.908;2023-05-20T00:14:30;5.88;;;4.80;;
26612;SDS011;14248;57.652;11.908;2023-05-20T00:16:57;6.85;;;4.63;;
26612;SDS011;14248;57.652;11.908;2023-05-20T00:19:23;5.68;;;4.78;;
26612;SDS011;14248;57.652;11.908;2023-05-20T00:21:49;6.28;;;4.57;;
26612;SDS011;14248;57.652;11.908;2023-05-20T00:24:15;5.53;;;4.50;;
26612;SDS011;14248;57.652;11.908;2023-05-20T00:26:41;5.72;;;4.50;;
26612;SDS011;14248;57.652;11.908;2023-05-20T00:29:07;5.45;;;4.65;;
26612;SDS011;14248;57.652;11.908;2023-05-20T00:31:33;6.32;;;4.65;;
26612;SDS011;14248;57.652;11.908;2023-05-20T00:34:00;6.93;;;5.10;;
26612;SDS011;14248;57.652;11.908;2023-05-20T00:36:28;5.30;;;4.35;;
26612;SDS011;14248;57.652;11.908;2023-05-20T00:38:56;7.78;;;5.50;;
26612;SDS011;14248;57.652;11.908;2023-05-20T00:41:35;8.43;;;5.97;;
26612;SDS011;14248;57.652;11.908;2023-05-20T00:44:03;7.68;;;5.50;;
26612;SDS011;14248;57.652;11.908;2023-05-20T00:46:29;6.28;;;4.85;;
26612;SDS011;14248;57.652;11.908;2023-05-20T00:49:09;6.50;;;5.45;;
26612;SDS011;14248;57.652;11.908;2023-05-20T00:51:35;6.97;;;5.80;;
26612;SDS011;14248;57.652;11.908;2023-05-20T00:54:01;6.78;;;5.28;;
26612;SDS011;14248;57.652;11.908;2023-05-20T00:56:28;6.85;;;5.47;;
26612;SDS011;14248;57.652;11.908;2023-05-20T00:58:54;9.05;;;5.65;;
26612;SDS011;14248;57.652;11.908;2023-05-20T01:01:20;8.48;;;6.30;;
26612;SDS011;14248;57.652;11.908;2023-05-20T01:03:46;9.68;;;6.30;;
26612;SDS011;14248;57.652;11.908;2023-05-20T01:06:13;9.13;;;6.25;;
26612;SDS011;14248;57.652;11.908;2023-05-20T01:08:39;9.27;;;6.43;;
26612;SDS011;14248;57.652;11.908;2023-05-20T01:13:32;9.07;;;6.00;;
26612;SDS011;14248;57.652;11.908;2023-05-20T01:16:01;6.32;;;5.38;;
26612;SDS011;14248;57.652;11.908;2023-05-20T01:18:29;5.55;;;4.85;;
26612;SDS011;14248;57.652;11.908;2023-05-20T01:20:55;7.68;;;5.57;;
26612;SDS011;14248;57.652;11.908;2023-05-20T01:23:30;8.52;;;5.97;;
26612;SDS011;14248;57.652;11.908;2023-05-20T01:25:56;8.45;;;6.00;;
26612;SDS011;14248;57.652;11.908;2023-05-20T01:28:22;6.90;;;5.45;;
26612;SDS011;14248;57.652;11.908;2023-05-20T01:30:49;7.05;;;5.60;;
26612;SDS011;14248;57.652;11.908;2023-05-20T01:33:17;6.35;;;5.20;;
26612;SDS011;14248;57.652;11.908;2023-05-20T01:35:45;7.95;;;5.90;;
26612;SDS011;14248;57.652;11.908;2023-05-20T01:38:12;7.43;;;5.53;;
26612;SDS011;14248;57.652;11.908;2023-05-20T01:40:38;7.15;;;5.28;;
26612;SDS011;14248;57.652;11.908;2023-05-20T01:43:05;6.97;;;5.40;;
26612;SDS011;14248;57.652;11.908;2023-05-20T01:45:32;6.70;;;4.80;;
26612;SDS011;14248;57.652;11.908;2023-05-20T01:47:58;7.15;;;4.72;;
26612;SDS011;14248;57.652;11.908;2023-05-20T01:50:25;8.20;;;5.30;;
26612;SDS011;14248;57.652;11.908;2023-05-20T01:52:51;7.40;;;5.40;;
26612;SDS011;14248;57.652;11.908;2023-05-20T01:55:17;6.80;;;5.07;;
26612;SDS011;14248;57.652;11.908;2023-05-20T01:57:43;7.85;;;5.45;;
26612;SDS011;14248;57.652;11.908;2023-05-20T02:00:10;8.05;;;5.45;;
26612;SDS011;14248;57.652;11.908;2023-05-20T02:02:36;7.82;;;5.35;;
26612;SDS011;14248;57.652;11.908;2023-05-20T02:05:02;7.88;;;6.10;;
26612;SDS011;14248;57.652;11.908;2023-05-20T02:07:28;8.75;;;5.97;;
26612;SDS011;14248;57.652;11.908;2023-05-20T02:09:54;6.90;;;4.97;;
26612;SDS011;14248;57.652;11.908;2023-05-20T02:12:21;5.03;;;4.53;;
26612;SDS011;14248;57.652;11.908;2023-05-20T02:14:47;6.70;;;4.53;;
26612;SDS011;14248;57.652;11.908;2023-05-20T02:17:15;6.00;;;4.93;;
26612;SDS011;14248;57.652;11.908;2023-05-20T02:19:41;7.47;;;5.55;;
26612;SDS011;14248;57.652;11.908;2023-05-20T02:22:08;7.18;;;5.32;;
26612;SDS011;14248;57.652;11.908;2023-05-20T02:24:34;6.53;;;5.32;;
26612;SDS011;14248;57.652;11.908;2023-05-20T02:27:00;7.03;;;5.38;;
26612;SDS011;14248;57.652;11.908;2023-05-20T02:29:27;8.02;;;5.78;;
26612;SDS011;14248;57.652;11.908;2023-05-20T02:31:53;6.68;;;5.18;;
26612;SDS011;14248;57.652;11.908;2023-05-20T02:34:20;5.93;;;5.13;;
26612;SDS011;14248;57.652;11.908;2023-05-20T02:36:47;7.60;;;5.22;;
26612;SDS011;14248;57.652;11.908;2023-05-20T02:39:13;6.93;;;6.00;;
26612;SDS011;14248;57.652;11.908;2023-05-20T02:41:40;7.25;;;5.90;;
26612;SDS011;14248;57.652;11.908;2023-05-20T02:44:06;7.57;;;5.38;;
26612;SDS011;14248;57.652;11.908;2023-05-20T02:46:33;8.02;;;5.28;;
26612;SDS011;14248;57.652;11.908;2023-05-20T02:49:00;6.93;;;5.28;;
26612;SDS011;14248;57.652;11.908;2023-05-20T02:51:26;9.73;;;5.60;;
26612;SDS011;14248;57.652;11.908;2023-05-20T02:53:52;6.20;;;5.22;;
26612;SDS011;14248;57.652;11.908;2023-05-20T02:56:18;9.43;;;5.55;;
26612;SDS011;14248;57.652;11.908;2023-05-20T02:58:45;8.07;;;5.57;;
26612;SDS011;14248;57.652;11.908;2023-05-20T03:01:11;9.45;;;6.68;;
26612;SDS011;14248;57.652;11.908;2023-05-20T03:03:37;9.10;;;6.72;;
26612;SDS011;14248;57.652;11.908;2023-05-20T03:06:05;9.85;;;6.30;;
26612;SDS011;14248;57.652;11.908;2023-05-20T03:08:32;8.30;;;5.90;;
26612;SDS011;14248;57.652;11.908;2023-05-20T03:10:58;5.78;;;4.93;;
26612;SDS011;14248;57.652;11.908;2023-05-20T03:13:24;7.50;;;5.38;;
26612;SDS011;14248;57.652;11.908;2023-05-20T03:15:50;6.63;;;5.28;;
26612;SDS011;14248;57.652;11.908;2023-05-20T03:18:17;5.40;;;4.65;;
26612;SDS011;14248;57.652;11.908;2023-05-20T03:20:44;8.68;;;5.38;;
26612;SDS011;14248;57.652;11.908;2023-05-20T03:23:11;6.32;;;4.82;;
26612;SDS011;14248;57.652;11.908;2023-05-20T03:25:39;6.68;;;4.80;;
26612;SDS011;14248;57.652;11.908;2023-05-20T03:28:05;6.40;;;4.28;;
26612;SDS011;14248;57.652;11.908;2023-05-20T03:30:31;6.28;;;4.43;;
26612;SDS011;14248;57.652;11.908;2023-05-20T03:32:57;5.30;;;4.38;;
26612;SDS011;14248;57.652;11.908;2023-05-20T03:35:24;5.60;;;4.10;;
26612;SDS011;14248;57.652;11.908;2023-05-20T03:37:50;6.22;;;5.13;;
26612;SDS011;14248;57.652;11.908;2023-05-20T03:40:17;6.72;;;5.22;;
26612;SDS011;14248;57.652;11.908;2023-05-20T03:42:44;5.47;;;4.40;;
26612;SDS011;14248;57.652;11.908;2023-05-20T03:45:10;4.75;;;4.25;;
26612;SDS011;14248;57.652;11.908;2023-05-20T03:47:37;6.68;;;4.80;;
26612;SDS011;14248;57.652;11.908;2023-05-20T03:50:03;6.40;;;4.25;;
26612;SDS011;14248;57.652;11.908;2023-05-20T03:52:29;6.97;;;4.50;;
26612;SDS011;14248;57.652;11.908;2023-05-20T03:54:56;5.85;;;4.03;;
26612;SDS011;14248;57.652;11.908;2023-05-20T03:57:22;5.38;;;4.40;;
26612;SDS011;14248;57.652;11.908;2023-05-20T03:59:48;7.03;;;4.88;;
26612;SDS011;14248;57.652;11.908;2023-05-20T04:02:14;5.68;;;4.78;;
26612;SDS011;14248;57.652;11.908;2023-05-20T04:04:41;8.07;;;4.97;;
26612;SDS011;14248;57.652;11.908;2023-05-20T04:07:08;9.48;;;5.80;;
26612;SDS011;14248;57.652;11.908;2023-05-20T04:09:35;8.45;;;5.72;;
26612;SDS011;14248;57.652;11.908;2023-05-20T04:12:01;9.40;;;5.88;;
26612;SDS011;14248;57.652;11.908;2023-05-20T04:14:27;7.07;;;5.85;;
26612;SDS011;14248;57.652;11.908;2023-05-20T04:16:53;6.45;;;5.30;;
26612;SDS011;14248;57.652;11.908;2023-05-20T04:19:20;6.43;;;4.72;;
26612;SDS011;14248;57.652;11.908;2023-05-20T04:21:48;9.27;;;5.47;;
26612;SDS011;14248;57.652;11.908;2023-05-20T04:24:14;8.43;;;5.28;;
26612;SDS011;14248;57.652;11.908;2023-05-20T04:26:40;6.82;;;4.63;;
26612;SDS011;14248;57.652;11.908;2023-05-20T04:29:07;7.20;;;5.40;;
26612;SDS011;14248;57.652;11.908;2023-05-20T04:31:33;8.70;;;5.68;;
26612;SDS011;14248;57.652;11.908;2023-05-20T04:33:59;7.57;;;5.18;;
26612;SDS011;14248;57.652;11.908;2023-05-20T04:36:26;6.30;;;5.07;;
26612;SDS011;14248;57.652;11.908;2023-05-20T04:38:53;6.95;;;5.60;;
26612;SDS011;14248;57.652;11.908;2023-05-20T04:41:19;11.57;;;6.20;;
26612;SDS011;14248;57.652;11.908;2023-05-20T04:43:45;7.50;;;5.18;;
26612;SDS011;14248;57.652;11.908;2023-05-20T04:46:11;6.53;;;5.38;;
26612;SDS011;14248;57.652;11.908;2023-05-20T04:48:38;8.35;;;5.88;;
26612;SDS011;14248;57.652;11.908;2023-05-20T04:51:05;6.80;;;5.40;;
26612;SDS011;14248;57.652;11.908;2023-05-20T04:53:32;7.78;;;5.15;;
26612;SDS011;14248;57.652;11.908;2023-05-20T04:56:00;6.93;;;5.28;;
26612;SDS011;14248;57.652;11.908;2023-05-20T04:58:27;6.80;;;5.70;;
26612;SDS011;14248;57.652;11.908;2023-05-20T05:00:54;6.32;;;4.43;;
26612;SDS011;14248;57.652;11.908;2023-05-20T05:03:20;5.90;;;4.60;;
26612;SDS011;14248;57.652;11.908;2023-05-20T05:05:47;5.90;;;4.80;;
26612;SDS011;14248;57.652;11.908;2023-05-20T05:08:14;6.55;;;5.10;;
26612;SDS011;14248;57.652;11.908;2023-05-20T05:10:41;7.72;;;5.13;;
26612;SDS011;14248;57.652;11.908;2023-05-20T05:13:07;6.43;;;5.45;;
26612;SDS011;14248;57.652;11.908;2023-05-20T05:15:33;6.65;;;5.10;;
26612;SDS011;14248;57.652;11.908;2023-05-20T05:21:01;6.47;;;5.22;;
26612;SDS011;14248;57.652;11.908;2023-05-20T05:23:44;6.78;;;4.82;;
26612;SDS011;14248;57.652;11.908;2023-05-20T05:26:11;6.90;;;5.60;;
26612;SDS011;14248;57.652;11.908;2023-05-20T05:31:25;7.93;;;5.15;;
26612;SDS011;14248;57.652;11.908;2023-05-20T05:34:03;7.75;;;5.65;;
26612;SDS011;14248;57.652;11.908;2023-05-20T05:36:37;7.88;;;5.82;;
26612;SDS011;14248;57.652;11.908;2023-05-20T05:41:35;7.50;;;5.53;;
26612;SDS011;14248;57.652;11.908;2023-05-20T05:44:03;8.93;;;5.30;;
26612;SDS011;14248;57.652;11.908;2023-05-20T05:46:29;8.63;;;5.30;;
26612;SDS011;14248;57.652;11.908;2023-05-20T05:48:56;6.38;;;5.05;;
26612;SDS011;14248;57.652;11.908;2023-05-20T05:51:22;9.60;;;5.63;;
26612;SDS011;14248;57.652;11.908;2023-05-20T05:56:21;10.05;;;5.70;;
26612;SDS011;14248;57.652;11.908;2023-05-20T05:58:47;7.50;;;5.28;;
26612;SDS011;14248;57.652;11.908;2023-05-20T06:01:14;7.80;;;5.05;;
26612;SDS011;14248;57.652;11.908;2023-05-20T06:03:41;7.22;;;5.57;;
26612;SDS011;14248;57.652;11.908;2023-05-20T06:06:08;7.82;;;5.22;;
26612;SDS011;14248;57.652;11.908;2023-05-20T06:08:34;7.57;;;5.35;;
26612;SDS011;14248;57.652;11.908;2023-05-20T06:11:00;6.10;;;5.50;;
26612;SDS011;14248;57.652;11.908;2023-05-20T06:13:26;8.20;;;5.65;;
26612;SDS011;14248;57.652;11.908;2023-05-20T06:15:52;8.30;;;5.55;;
26612;SDS011;14248;57.652;11.908;2023-05-20T06:18:18;8.60;;;5.30;;
26612;SDS011;14248;57.652;11.908;2023-05-20T06:20:44;7.18;;;5.35;;
26612;SDS011;14248;57.652;11.908;2023-05-20T06:23:10;9.02;;;5.78;;
26612;SDS011;14248;57.652;11.908;2023-05-20T06:25:36;8.18;;;5.25;;
26612;SDS011;14248;57.652;11.908;2023-05-20T06:28:02;7.82;;;5.50;;
26612;SDS011;14248;57.652;11.908;2023-05-20T06:30:28;6.80;;;5.25;;
26612;SDS011;14248;57.652;11.908;2023-05-20T06:32:54;6.13;;;4.72;;
26612;SDS011;14248;57.652;11.908;2023-05-20T06:35:20;7.03;;;5.25;;
26612;SDS011;14248;57.652;11.908;2023-05-20T06:37:46;7.00;;;5.43;;
26612;SDS011;14248;57.652;11.908;2023-05-20T06:40:12;7.22;;;4.97;;
26612;SDS011;14248;57.652;11.908;2023-05-20T06:42:38;8.77;;;5.05;;
26612;SDS011;14248;57.652;11.908;2023-05-20T06:45:05;7.53;;;4.72;;
26612;SDS011;14248;57.652;11.908;2023-05-20T06:47:31;7.57;;;4.93;;
26612;SDS011;14248;57.652;11.908;2023-05-20T06:49:57;7.47;;;4.97;;
26612;SDS011;14248;57.652;11.908;2023-05-20T06:52:23;6.80;;;5.20;;
26612;SDS011;14248;57.652;11.908;2023-05-20T06:54:49;6.63;;;5.20;;
26612;SDS011;14248;57.652;11.908;2023-05-20T06:57:15;7.90;;;5.13;;
26612;SDS011;14248;57.652;11.908;2023-05-20T06:59:41;7.72;;;5.10;;
26612;SDS011;14248;57.652;11.908;2023-05-20T07:02:07;7.75;;;5.38;;
26612;SDS011;14248;57.652;11.908;2023-05-20T07:04:34;7.10;;;4.93;;
26612;SDS011;14248;57.652;11.908;2023-05-20T07:07:04;8.77;;;4.85;;
26612;SDS011;14248;57.652;11.908;2023-05-20T07:09:30;6.95;;;4.80;;
26612;SDS011;14248;57.652;11.908;2023-05-20T07:11:57;5.75;;;4.50;;
26612;SDS011;14248;57.652;11.908;2023-05-20T07:14:23;6.80;;;4.55;;
26612;SDS011;14248;57.652;11.908;2023-05-20T07:16:50;6.72;;;4.95;;
26612;SDS011;14248;57.652;11.908;2023-05-20T07:19:16;5.93;;;4.40;;
26612;SDS011;14248;57.652;11.908;2023-05-20T07:21:43;5.78;;;4.40;;
26612;SDS011;14248;57.652;11.908;2023-05-20T07:24:09;4.68;;;4.20;;
26612;SDS011;14248;57.652;11.908;2023-05-20T07:26:35;6.57;;;4.32;;
26612;SDS011;14248;57.652;11.908;2023-05-20T07:29:08;5.25;;;4.18;;
26612;SDS011;14248;57.652;11.908;2023-05-20T07:31:34;6.50;;;4.50;;
26612;SDS011;14248;57.652;11.908;2023-05-20T07:34:05;5.20;;;4.22;;
26612;SDS011;14248;57.652;11.908;2023-05-20T07:36:31;4.60;;;4.07;;
26612;SDS011;14248;57.652;11.908;2023-05-20T07:38:57;7.55;;;4.47;;
26612;SDS011;14248;57.652;11.908;2023-05-20T07:41:23;4.60;;;3.83;;
26612;SDS011;14248;57.652;11.908;2023-05-20T07:43:51;4.97;;;3.47;;
26612;SDS011;14248;57.652;11.908;2023-05-20T07:46:17;5.55;;;3.65;;
26612;SDS011;14248;57.652;11.908;2023-05-20T07:48:43;5.75;;;3.65;;
26612;SDS011;14248;57.652;11.908;2023-05-20T07:51:10;4.40;;;3.60;;
26612;SDS011;14248;57.652;11.908;2023-05-20T07:53:36;4.88;;;3.47;;
26612;SDS011;14248;57.652;11.908;2023-05-20T07:56:02;4.45;;;2.80;;
26612;SDS011;14248;57.652;11.908;2023-05-20T07:58:28;3.47;;;2.80;;
26612;SDS011;14248;57.652;11.908;2023-05-20T08:00:55;4.13;;;2.65;;
26612;SDS011;14248;57.652;11.908;2023-05-20T08:03:21;5.43;;;3.13;;
26612;SDS011;14248;57.652;11.908;2023-05-20T08:05:48;3.83;;;2.72;;
26612;SDS011;14248;57.652;11.908;2023-05-20T08:08:14;3.38;;;2.47;;
26612;SDS011;14248;57.652;11.908;2023-05-20T08:10:41;3.10;;;2.60;;
26612;SDS011;14248;57.652;11.908;2023-05-20T08:13:07;3.75;;;2.47;;
26612;SDS011;14248;57.652;11.908;2023-05-20T08:15:39;3.33;;;2.47;;
26612;SDS011;14248;57.652;11.908;2023-05-20T08:18:05;2.80;;;2.33;;
26612;SDS011;14248;57.652;11.908;2023-05-20T08:20:31;2.88;;;2.20;;
26612;SDS011;14248;57.652;11.908;2023-05-20T08:22:57;2.17;;;1.95;;
26612;SDS011;14248;57.652;11.908;2023-05-20T08:25:23;2.60;;;2.03;;
26612;SDS011;14248;57.652;11.908;2023-05-20T08:27:49;2.92;;;2.00;;
26612;SDS011;14248;57.652;11.908;2023-05-20T08:30:15;3.78;;;2.08;;
26612;SDS011;14248;57.652;11.908;2023-05-20T08:32:41;2.67;;;2.08;;
26612;SDS011;14248;57.652;11.908;2023-05-20T08:35:08;3.72;;;2.08;;
26612;SDS011;14248;57.652;11.908;2023-05-20T08:37:34;4.90;;;2.40;;
26612;SDS011;14248;57.652;11.908;2023-05-20T08:40:00;2.53;;;2.05;;
26612;SDS011;14248;57.652;11.908;2023-05-20T08:42:27;2.88;;;1.92;;
26612;SDS011;14248;57.652;11.908;2023-05-20T08:44:53;3.65;;;2.42;;
26612;SDS011;14248;57.652;11.908;2023-05-20T08:47:20;4.30;;;2.20;;
26612;SDS011;14248;57.652;11.908;2023-05-20T08:49:49;3.58;;;2.08;;
26612;SDS011;14248;57.652;11.908;2023-05-20T08:52:16;3.55;;;2.17;;
26612;SDS011;14248;57.652;11.908;2023-05-20T08:54:47;2.85;;;1.95;;
26612;SDS011;14248;57.652;11.908;2023-05-20T08:57:13;3.75;;;2.20;;
26612;SDS011;14248;57.652;11.908;2023-05-20T08:59:43;3.25;;;2.40;;
26612;SDS011;14248;57.652;11.908;2023-05-20T09:02:10;3.15;;;2.30;;
26612;SDS011;14248;57.652;11.908;2023-05-20T09:04:36;2.95;;;2.47;;
26612;SDS011;14248;57.652;11.908;2023-05-20T09:07:04;2.78;;;1.88;;
26612;SDS011;14248;57.652;11.908;2023-05-20T09:09:33;2.22;;;2.03;;
26612;SDS011;14248;57.652;11.908;2023-05-20T09:12:00;3.40;;;2.15;;
26612;SDS011;14248;57.652;11.908;2023-05-20T09:14:27;2.60;;;2.40;;
26612;SDS011;14248;57.652;11.908;2023-05-20T09:16:53;3.35;;;2.95;;
26612;SDS011;14248;57.652;11.908;2023-05-20T09:19:20;3.00;;;2.22;;
26612;SDS011;14248;57.652;11.908;2023-05-20T09:21:47;2.05;;;1.90;;
26612;SDS011;14248;57.652;11.908;2023-05-20T09:24:18;2.80;;;2.38;;
26612;SDS011;14248;57.652;11.908;2023-05-20T09:26:48;4.40;;;2.20;;
26612;SDS011;14248;57.652;11.908;2023-05-20T09:29:14;2.70;;;2.30;;
26612;SDS011;14248;57.652;11.908;2023-05-20T09:31:40;2.50;;;2.30;;
26612;SDS011;14248;57.652;11.908;2023-05-20T09:34:05;3.53;;;2.40;;
26612;SDS011;14248;57.652;11.908;2023-05-20T09:36:32;4.28;;;2.65;;
26612;SDS011;14248;57.652;11.908;2023-05-20T09:39:02;4.18;;;3.25;;
26612;SDS011;14248;57.652;11.908;2023-05-20T09:41:33;4.18;;;3.05;;
26612;SDS011;14248;57.652;11.908;2023-05-20T09:44:03;3.35;;;3.00;;
26612;SDS011;14248;57.652;11.908;2023-05-20T09:46:31;3.58;;;3.28;;
26612;SDS011;14248;57.652;11.908;2023-05-20T09:48:59;4.03;;;3.33;;
26612;SDS011;14248;57.652;11.908;2023-05-20T09:51:27;4.05;;;3.13;;
26612;SDS011;14248;57.652;11.908;2023-05-20T09:53:53;5.47;;;3.40;;
26612;SDS011;14248;57.652;11.908;2023-05-20T09:56:26;4.80;;;3.50;;
26612;SDS011;14248;57.652;11.908;2023-05-20T09:58:56;6.43;;;4.53;;
26612;SDS011;14248;57.652;11.908;2023-05-20T10:01:23;5.65;;;3.65;;
26612;SDS011;14248;57.652;11.908;2023-05-20T10:03:49;4.93;;;3.97;;
26612;SDS011;14248;57.652;11.908;2023-05-20T10:09:09;7.40;;;4.20;;
26612;SDS011;14248;57.652;11.908;2023-05-20T10:19:34;7.20;;;3.95;;
26612;SDS011;14248;57.652;11.908;2023-05-20T10:22:07;7.20;;;4.15;;
26612;SDS011;14248;57.652;11.908;2023-05-20T10:24:41;8.10;;;4.53;;
26612;SDS011;14248;57.652;11.908;2023-05-20T10:27:10;4.40;;;3.78;;
26612;SDS011;14248;57.652;11.908;2023-05-20T10:32:22;6.78;;;3.85;;
26612;SDS011;14248;57.652;11.908;2023-05-20T10:34:49;6.95;;;4.10;;
26612;SDS011;14248;57.652;11.908;2023-05-20T10:37:28;5.22;;;3.90;;
26612;SDS011;14248;57.652;11.908;2023-05-20T10:45:46;5.22;;;3.22;;
26612;SDS011;14248;57.652;11.908;2023-05-20T10:48:22;4.63;;;3.50;;
26612;SDS011;14248;57.652;11.908;2023-05-20T10:50:57;6.22;;;3.97;;
26612;SDS011;14248;57.652;11.908;2023-05-20T10:53:36;6.18;;;4.10;;
26612;SDS011;14248;57.652;11.908;2023-05-20T10:56:15;5.07;;;3.88;;
26612;SDS011;14248;57.652;11.908;2023-05-20T10:58:48;5.10;;;3.85;;
26612;SDS011;14248;57.652;11.908;2023-05-20T11:01:15;5.53;;;3.80;;
26612;SDS011;14248;57.652;11.908;2023-05-20T11:03:43;6.15;;;3.75;;
26612;SDS011;14248;57.652;11.908;2023-05-20T11:06:15;7.30;;;4.20;;
26612;SDS011;14248;57.652;11.908;2023-05-20T11:08:42;6.45;;;4.13;;
26612;SDS011;14248;57.652;11.908;2023-05-20T11:11:09;5.07;;;4.00;;
26612;SDS011;14248;57.652;11.908;2023-05-20T11:13:36;6.28;;;4.40;;
26612;SDS011;14248;57.652;11.908;2023-05-20T11:16:02;6.13;;;3.88;;
26612;SDS011;14248;57.652;11.908;2023-05-20T11:18:29;5.32;;;4.05;;
26612;SDS011;14248;57.652;11.908;2023-05-20T11:23:50;8.52;;;4.40;;
26612;SDS011;14248;57.652;11.908;2023-05-20T11:26:16;4.43;;;3.90;;
26612;SDS011;14248;57.652;11.908;2023-05-20T11:28:42;6.00;;;4.10;;
26612;SDS011;14248;57.652;11.908;2023-05-20T11:31:08;4.75;;;4.13;;
26612;SDS011;14248;57.652;11.908;2023-05-20T11:33:34;7.45;;;4.70;;
26612;SDS011;14248;57.652;11.908;2023-05-20T11:36:00;8.70;;;4.32;;
26612;SDS011;14248;57.652;11.908;2023-05-20T11:38:26;6.00;;;4.30;;
26612;SDS011;14248;57.652;11.908;2023-05-20T11:40:52;6.63;;;4.65;;
26612;SDS011;14248;57.652;11.908;2023-05-20T11:43:21;7.28;;;5.07;;
26612;SDS011;14248;57.652;11.908;2023-05-20T11:45:55;7.75;;;4.80;;
26612;SDS011;14248;57.652;11.908;2023-05-20T11:48:23;6.80;;;4.85;;
26612;SDS011;14248;57.652;11.908;2023-05-20T11:50:49;9.88;;;5.00;;
26612;SDS011;14248;57.652;11.908;2023-05-20T11:53:19;5.78;;;4.60;;
26612;SDS011;14248;57.652;11.908;2023-05-20T11:55:49;5.72;;;4.45;;
26612;SDS011;14248;57.652;11.908;2023-05-20T11:58:19;7.03;;;4.35;;
26612;SDS011;14248;57.652;11.908;2023-05-20T12:00:46;5.40;;;4.47;;
26612;SDS011;14248;57.652;11.908;2023-05-20T12:03:11;9.13;;;5.45;;
26612;SDS011;14248;57.652;11.908;2023-05-20T12:05:37;7.50;;;4.88;;
26612;SDS011;14248;57.652;11.908;2023-05-20T12:08:04;5.95;;;4.57;;
26612;SDS011;14248;57.652;11.908;2023-05-20T12:10:30;9.10;;;5.15;;
26612;SDS011;14248;57.652;11.908;2023-05-20T12:12:56;8.48;;;4.55;;
26612;SDS011;14248;57.652;11.908;2023-05-20T12:15:22;6.93;;;4.60;;
26612;SDS011;14248;57.652;11.908;2023-05-20T12:17:51;7.40;;;4.82;;
26612;SDS011;14248;57.652;11.908;2023-05-20T12:20:18;6.30;;;4.70;;
26612;SDS011;14248;57.652;11.908;2023-05-20T12:22:46;8.10;;;4.80;;
26612;SDS011;14248;57.652;11.908;2023-05-20T12:25:13;5.70;;;4.30;;
26612;SDS011;14248;57.652;11.908;2023-05-20T12:27:43;5.80;;;3.75;;
26612;SDS011;14248;57.652;11.908;2023-05-20T12:30:12;5.00;;;4.10;;
26612;SDS011;14248;57.652;11.908;2023-05-20T12:32:40;6.05;;;4.32;;
26612;SDS011;14248;57.652;11.908;2023-05-20T12:35:07;7.40;;;4.82;;
26612;SDS011;14248;57.652;11.908;2023-05-20T12:37:33;4.32;;;3.72;;
26612;SDS011;14248;57.652;11.908;2023-05-20T12:40:00;5.45;;;3.58;;
26612;SDS011;14248;57.652;11.908;2023-05-20T12:42:26;6.75;;;4.05;;
26612;SDS011;14248;57.652;11.908;2023-05-20T12:44:51;5.47;;;4.18;;
26612;SDS011;14248;57.652;11.908;2023-05-20T12:47:19;6.25;;;4.22;;
26612;SDS011;14248;57.652;11.908;2023-05-20T12:49:45;5.75;;;4.07;;
26612;SDS011;14248;57.652;11.908;2023-05-20T12:52:10;6.65;;;3.70;;
26612;SDS011;14248;57.652;11.908;2023-05-20T12:54:36;5.22;;;3.60;;
26612;SDS011;14248;57.652;11.908;2023-05-20T12:57:02;4.03;;;3.40;;
26612;SDS011;14248;57.652;11.908;2023-05-20T12:59:29;5.78;;;4.22;;
26612;SDS011;14248;57.652;11.908;2023-05-20T13:01:55;5.72;;;3.97;;
26612;SDS011;14248;57.652;11.908;2023-05-20T13:04:21;6.38;;;4.03;;
26612;SDS011;14248;57.652;11.908;2023-05-20T13:06:47;5.43;;;3.97;;
26612;SDS011;14248;57.652;11.908;2023-05-20T13:09:13;4.72;;;3.95;;
26612;SDS011;14248;57.652;11.908;2023-05-20T13:11:39;6.18;;;4.47;;
26612;SDS011;14248;57.652;11.908;2023-05-20T13:14:06;5.72;;;3.63;;
26612;SDS011;14248;57.652;11.908;2023-05-20T13:16:32;3.97;;;3.55;;
26612;SDS011;14248;57.652;11.908;2023-05-20T13:18:58;4.38;;;3.45;;
26612;SDS011;14248;57.652;11.908;2023-05-20T13:21:24;4.70;;;3.47;;
26612;SDS011;14248;57.652;11.908;2023-05-20T13:23:49;5.10;;;3.20;;
26612;SDS011;14248;57.652;11.908;2023-05-20T13:26:15;7.28;;;3.42;;
26612;SDS011;14248;57.652;11.908;2023-05-20T13:28:41;5.63;;;3.50;;
26612;SDS011;14248;57.652;11.908;2023-05-20T13:31:07;3.55;;;3.13;;
26612;SDS011;14248;57.652;11.908;2023-05-20T13:33:33;4.32;;;3.60;;
26612;SDS011;14248;57.652;11.908;2023-05-20T13:35:59;3.95;;;2.83;;
26612;SDS011;14248;57.652;11.908;2023-05-20T13:38:25;3.53;;;2.97;;
26612;SDS011;14248;57.652;11.908;2023-05-20T13:40:51;3.58;;;3.03;;
26612;SDS011;14248;57.652;11.908;2023-05-20T13:43:17;2.90;;;2.70;;
26612;SDS011;14248;57.652;11.908;2023-05-20T13:45:43;3.22;;;2.78;;
26612;SDS011;14248;57.652;11.908;2023-05-20T13:48:09;3.33;;;2.80;;
26612;SDS011;14248;57.652;11.908;2023-05-20T13:50:35;3.20;;;2.90;;
26612;SDS011;14248;57.652;11.908;2023-05-20T13:53:02;3.25;;;2.90;;
26612;SDS011;14248;57.652;11.908;2023-05-20T13:55:28;3.42;;;2.65;;
26612;SDS011;14248;57.652;11.908;2023-05-20T13:57:54;2.83;;;2.63;;
26612;SDS011;14248;57.652;11.908;2023-05-20T14:00:20;2.90;;;2.65;;
26612;SDS011;14248;57.652;11.908;2023-05-20T14:02:46;3.13;;;2.83;;
26612;SDS011;14248;57.652;11.908;2023-05-20T14:05:14;2.80;;;2.60;;
26612;SDS011;14248;57.652;11.908;2023-05-20T14:07:40;2.95;;;2.65;;
26612;SDS011;14248;57.652;11.908;2023-05-20T14:10:06;3.72;;;2.50;;
26612;SDS011;14248;57.652;11.908;2023-05-20T14:12:33;2.83;;;2.58;;
26612;SDS011;14248;57.652;11.908;2023-05-20T14:14:59;3.92;;;2.60;;
26612;SDS011;14248;57.652;11.908;2023-05-20T14:17:25;2.80;;;2.60;;
26612;SDS011;14248;57.652;11.908;2023-05-20T14:19:51;3.08;;;2.70;;
26612;SDS011;14248;57.652;11.908;2023-05-20T14:22:17;2.67;;;2.47;;
26612;SDS011;14248;57.652;11.908;2023-05-20T14:24:44;2.55;;;2.03;;
26612;SDS011;14248;57.652;11.908;2023-05-20T14:27:10;3.08;;;2.47;;
26612;SDS011;14248;57.652;11.908;2023-05-20T14:29:38;2.45;;;2.22;;
26612;SDS011;14248;57.652;11.908;2023-05-20T14:32:04;2.85;;;2.65;;
26612;SDS011;14248;57.652;11.908;2023-05-20T14:34:30;2.80;;;2.53;;
26612;SDS011;14248;57.652;11.908;2023-05-20T14:36:56;2.60;;;2.40;;
26612;SDS011;14248;57.652;11.908;2023-05-20T14:39:22;2.83;;;2.50;;
26612;SDS011;14248;57.652;11.908;2023-05-20T14:41:48;2.53;;;2.33;;
26612;SDS011;14248;57.652;11.908;2023-05-20T14:44:13;2.53;;;2.33;;
26612;SDS011;14248;57.652;11.908;2023-05-20T14:46:39;2.90;;;2.40;;
26612;SDS011;14248;57.652;11.908;2023-05-20T14:49:05;3.97;;;2.10;;
26612;SDS011;14248;57.652;11.908;2023-05-20T14:51:31;2.65;;;2.42;;
26612;SDS011;14248;57.652;11.908;2023-05-20T14:53:56;2.55;;;2.20;;
26612;SDS011;14248;57.652;11.908;2023-05-20T14:56:22;2.50;;;2.00;;
26612;SDS011;14248;57.652;11.908;2023-05-20T14:58:48;2.55;;;2.30;;
26612;SDS011;14248;57.652;11.908;2023-05-20T15:01:13;2.30;;;2.10;;
26612;SDS011;14248;57.652;11.908;2023-05-20T15:03:39;2.97;;;2.35;;
26612;SDS011;14248;57.652;11.908;2023-05-20T15:06:05;2.45;;;2.05;;
26612;SDS011;14248;57.652;11.908;2023-05-20T15:08:31;2.42;;;2.10;;